createdAt,value
2018-08-28T00:00:12.701Z,0.00
2018-08-28T00:01:12.684Z,0.00
2018-08-28T00:02:12.623Z,0.00
2018-08-28T00:03:12.585Z,0.00
2018-08-28T00:04:12.538Z,0.00
2018-08-28T00:05:12.501Z,0.00
2018-08-28T00:06:12.484Z,0.00
2018-08-28T00:07:12.425Z,0.00
2018-08-28T00:08:12.392Z,0.00
2018-08-28T00:09:12.357Z,0.00
2018-08-28T00:10:12.311Z,0.00
2018-08-28T00:11:12.292Z,0.00
2018-08-28T00:12:12.240Z,0.00
2018-08-28T00:13:12.201Z,0.00
2018-08-28T00:14:12.163Z,0.00
2018-08-28T00:15:12.124Z,0.00
2018-08-28T00:16:12.113Z,0.00
2018-08-28T00:17:12.120Z,0.00
2018-08-28T00:18:12.003Z,0.00
2018-08-28T00:19:11.967Z,0.00
2018-08-28T00:20:11.936Z,0.00
2018-08-28T00:21:11.895Z,0.00
2018-08-28T00:22:11.886Z,0.00
2018-08-28T00:23:11.818Z,0.00
2018-08-28T00:24:11.775Z,0.00
2018-08-28T00:25:11.735Z,0.00
2018-08-28T00:26:11.703Z,0.00
2018-08-28T00:27:11.689Z,0.00
2018-08-28T00:28:11.624Z,0.00
2018-08-28T00:29:11.579Z,0.00
2018-08-28T00:30:11.541Z,0.00
2018-08-28T00:31:11.503Z,0.00
2018-08-28T00:32:11.500Z,0.00
2018-08-28T00:33:11.432Z,0.00
2018-08-28T00:34:11.396Z,0.00
2018-08-28T00:35:11.359Z,0.00
2018-08-28T00:36:11.308Z,0.00
2018-08-28T00:37:11.276Z,0.00
2018-08-28T00:38:11.258Z,0.00
2018-08-28T00:39:11.197Z,0.00
2018-08-28T00:40:11.166Z,0.00
2018-08-28T00:41:11.127Z,0.00
2018-08-28T00:42:11.104Z,0.00
2018-08-28T00:43:11.041Z,0.00
2018-08-28T00:44:11.013Z,0.00
2018-08-28T00:45:10.974Z,0.00
2018-08-28T00:46:10.934Z,0.00
2018-08-28T00:47:10.923Z,0.00
2018-08-28T00:48:10.849Z,0.00
2018-08-28T00:49:10.814Z,0.00
2018-08-28T00:50:10.775Z,0.00
2018-08-28T00:51:10.734Z,0.00
2018-08-28T00:52:10.729Z,0.00
2018-08-28T00:53:10.687Z,0.00
2018-08-28T00:54:10.626Z,0.00
2018-08-28T00:55:21.037Z,0.00
2018-08-28T00:56:10.552Z,0.00
2018-08-28T00:57:10.513Z,0.00
2018-08-28T00:58:10.492Z,0.00
2018-08-28T00:59:10.453Z,0.00
2018-08-28T01:00:10.404Z,0.00
2018-08-28T01:01:10.375Z,0.00
2018-08-28T01:02:10.405Z,0.00
2018-08-28T01:03:10.308Z,0.00
2018-08-28T01:04:10.246Z,0.00
2018-08-28T01:05:10.204Z,0.00
2018-08-28T01:06:10.165Z,0.00
2018-08-28T01:07:10.122Z,0.00
2018-08-28T01:08:10.115Z,0.00
2018-08-28T01:09:10.041Z,0.00
2018-08-28T01:10:10.011Z,0.00
2018-08-28T01:11:09.975Z,0.00
2018-08-28T01:12:09.926Z,0.00
2018-08-28T01:13:09.888Z,0.00
2018-08-28T01:14:09.883Z,0.00
2018-08-28T01:15:09.819Z,0.00
2018-08-28T01:16:09.782Z,0.00
2018-08-28T01:17:09.739Z,0.00
2018-08-28T01:18:09.696Z,0.00
2018-08-28T01:19:09.685Z,0.00
2018-08-28T01:20:09.620Z,0.00
2018-08-28T01:21:09.581Z,0.00
2018-08-28T01:22:09.549Z,0.00
2018-08-28T01:23:09.517Z,0.00
2018-08-28T01:24:09.496Z,0.00
2018-08-28T01:25:09.434Z,0.00
2018-08-28T01:26:09.388Z,0.00
2018-08-28T01:27:09.351Z,0.00
2018-08-28T01:28:09.319Z,0.00
2018-08-28T01:29:09.281Z,0.00
2018-08-28T01:30:09.261Z,0.00
2018-08-28T01:31:09.196Z,0.00
2018-08-28T01:32:09.157Z,0.00
2018-08-28T01:33:09.122Z,0.00
2018-08-28T01:34:09.085Z,0.00
2018-08-28T01:35:09.076Z,0.00
2018-08-28T01:36:09.009Z,0.00
2018-08-28T01:37:08.982Z,0.00
2018-08-28T01:38:08.927Z,0.00
2018-08-28T01:39:08.891Z,0.00
2018-08-28T01:40:08.869Z,0.00
2018-08-28T01:41:08.808Z,0.00
2018-08-28T01:42:08.777Z,0.00
2018-08-28T01:43:08.739Z,0.00
2018-08-28T01:44:08.697Z,0.00
2018-08-28T01:45:08.685Z,0.00
2018-08-28T01:46:08.624Z,0.00
2018-08-28T01:47:08.586Z,0.00
2018-08-28T01:48:08.547Z,0.00
2018-08-28T01:49:08.510Z,0.00
2018-08-28T01:50:08.465Z,0.00
2018-08-28T01:51:08.445Z,0.00
2018-08-28T01:52:08.385Z,0.00
2018-08-28T01:53:08.353Z,0.00
2018-08-28T01:54:08.323Z,0.00
2018-08-28T01:55:08.276Z,0.00
2018-08-28T01:56:08.262Z,0.00
2018-08-28T01:57:08.199Z,0.00
2018-08-28T01:58:08.154Z,0.00
2018-08-28T01:59:08.118Z,0.00
2018-08-28T02:00:08.082Z,0.00
2018-08-28T02:01:08.080Z,0.00
2018-08-28T02:02:08.002Z,0.00
2018-08-28T02:03:07.964Z,0.00
2018-08-28T02:04:07.923Z,0.00
2018-08-28T02:05:07.885Z,0.00
2018-08-28T02:06:07.856Z,0.00
2018-08-28T02:07:07.834Z,0.00
2018-08-28T02:08:07.778Z,0.00
2018-08-28T02:09:07.737Z,0.00
2018-08-28T02:10:07.691Z,0.00
2018-08-28T02:11:07.652Z,0.00
2018-08-28T02:12:07.639Z,0.00
2018-08-28T02:13:07.582Z,0.00
2018-08-28T02:14:07.543Z,0.00
2018-08-28T02:15:07.509Z,0.00
2018-08-28T02:16:07.459Z,0.00
2018-08-28T02:17:07.442Z,0.00
2018-08-28T02:18:07.388Z,0.00
2018-08-28T02:19:07.352Z,0.00
2018-08-28T02:20:07.310Z,0.00
2018-08-28T02:21:07.274Z,0.00
2018-08-28T02:22:07.254Z,0.00
2018-08-28T02:23:07.188Z,0.00
2018-08-28T02:24:07.155Z,0.00
2018-08-28T02:25:07.118Z,0.00
2018-08-28T02:26:07.072Z,0.00
2018-08-28T02:27:07.036Z,0.00
2018-08-28T02:28:07.019Z,0.00
2018-08-28T02:29:06.959Z,0.00
2018-08-28T02:30:06.927Z,0.00
2018-08-28T02:31:06.890Z,0.00
2018-08-28T02:32:06.842Z,0.00
2018-08-28T02:33:06.825Z,0.00
2018-08-28T02:34:06.775Z,0.00
2018-08-28T02:35:06.730Z,0.00
2018-08-28T02:36:06.690Z,0.00
2018-08-28T02:37:06.656Z,0.00
2018-08-28T02:38:06.634Z,0.00
2018-08-28T02:39:06.571Z,0.00
2018-08-28T02:40:06.529Z,0.00
2018-08-28T02:41:06.493Z,0.00
2018-08-28T02:42:06.459Z,0.00
2018-08-28T02:43:06.443Z,0.00
2018-08-28T02:44:06.391Z,0.00
2018-08-28T02:45:06.343Z,0.00
2018-08-28T02:46:06.301Z,0.00
2018-08-28T02:47:06.261Z,0.00
2018-08-28T02:48:06.249Z,0.00
2018-08-28T02:49:06.188Z,0.00
2018-08-28T02:50:06.147Z,0.00
2018-08-28T02:51:06.107Z,0.00
2018-08-28T02:52:06.064Z,0.00
2018-08-28T02:53:06.055Z,0.00
2018-08-28T02:54:06.041Z,0.00
2018-08-28T02:55:05.952Z,0.00
2018-08-28T02:56:05.940Z,0.00
2018-08-28T02:57:05.881Z,0.00
2018-08-28T02:58:05.828Z,0.00
2018-08-28T02:59:05.813Z,0.00
2018-08-28T03:00:05.753Z,0.00
2018-08-28T03:01:05.715Z,0.00
2018-08-28T03:02:05.682Z,0.00
2018-08-28T03:03:05.740Z,0.00
2018-08-28T03:04:05.618Z,0.00
2018-08-28T03:05:05.557Z,0.00
2018-08-28T03:06:05.524Z,0.00
2018-08-28T03:07:05.485Z,0.00
2018-08-28T03:08:05.445Z,0.00
2018-08-28T03:09:05.427Z,0.00
2018-08-28T03:10:05.362Z,0.00
2018-08-28T03:11:05.323Z,0.00
2018-08-28T03:12:15.613Z,0.00
2018-08-28T03:13:05.251Z,0.00
2018-08-28T03:14:05.237Z,0.00
2018-08-28T03:15:05.172Z,0.00
2018-08-28T03:16:05.205Z,0.00
2018-08-28T03:17:05.088Z,0.00
2018-08-28T03:18:05.049Z,0.00
2018-08-28T03:19:05.017Z,0.00
2018-08-28T03:20:04.989Z,0.00
2018-08-28T03:21:04.927Z,0.00
2018-08-28T03:22:04.892Z,0.00
2018-08-28T03:23:04.851Z,0.00
2018-08-28T03:24:04.818Z,0.00
2018-08-28T03:25:04.800Z,0.00
2018-08-28T03:26:04.739Z,0.00
2018-08-28T03:27:04.700Z,0.00
2018-08-28T03:28:04.657Z,0.00
2018-08-28T03:29:04.685Z,0.00
2018-08-28T03:30:04.604Z,0.00
2018-08-28T03:31:04.546Z,0.00
2018-08-28T03:32:04.505Z,0.00
2018-08-28T03:33:04.463Z,0.00
2018-08-28T03:34:04.422Z,0.00
2018-08-28T03:35:04.378Z,0.00
2018-08-28T03:36:04.371Z,0.00
2018-08-28T03:37:04.309Z,0.00
2018-08-28T03:38:04.270Z,0.00
2018-08-28T03:39:04.227Z,0.00
2018-08-28T03:40:04.180Z,0.00
2018-08-28T03:41:04.167Z,0.00
2018-08-28T03:42:04.101Z,0.00
2018-08-28T03:43:04.066Z,0.00
2018-08-28T03:44:04.033Z,0.00
2018-08-28T03:45:03.992Z,0.00
2018-08-28T03:46:03.975Z,0.00
2018-08-28T03:47:03.914Z,0.00
2018-08-28T03:48:03.866Z,0.00
2018-08-28T03:49:03.824Z,0.00
2018-08-28T03:50:03.796Z,0.00
2018-08-28T03:51:03.782Z,0.00
2018-08-28T03:52:03.708Z,0.00
2018-08-28T03:53:03.677Z,0.00
2018-08-28T03:54:03.626Z,0.00
2018-08-28T03:55:03.586Z,0.00
2018-08-28T03:56:03.557Z,0.00
2018-08-28T03:57:03.538Z,0.00
2018-08-28T03:58:03.476Z,0.00
2018-08-28T03:59:03.437Z,0.00
2018-08-28T04:00:03.391Z,0.00
2018-08-28T04:01:03.384Z,0.00
2018-08-28T04:02:03.312Z,0.00
2018-08-28T04:03:03.272Z,0.00
2018-08-28T04:04:03.237Z,4.00
2018-08-28T04:05:03.200Z,4.00
2018-08-28T04:06:03.151Z,4.00
2018-08-28T04:07:03.134Z,0.00
2018-08-28T04:08:03.082Z,4.00
2018-08-28T04:09:03.038Z,4.00
2018-08-28T04:10:03.001Z,4.00
2018-08-28T04:11:02.960Z,4.00
2018-08-28T04:12:02.949Z,4.00
2018-08-28T04:13:02.902Z,12.00
2018-08-28T04:14:02.834Z,12.00
2018-08-28T04:15:02.802Z,12.00
2018-08-28T04:16:02.764Z,16.00
2018-08-28T04:17:02.808Z,16.00
2018-08-28T04:18:02.682Z,20.00
2018-08-28T04:19:02.645Z,24.00
2018-08-28T04:20:02.595Z,28.00
2018-08-28T04:21:02.558Z,36.00
2018-08-28T04:22:02.541Z,40.00
2018-08-28T04:23:02.484Z,48.00
2018-08-28T04:24:02.437Z,56.00
2018-08-28T04:25:02.398Z,64.00
2018-08-28T04:26:02.356Z,72.00
2018-08-28T04:27:02.344Z,80.00
2018-08-28T04:28:02.281Z,96.00
2018-08-28T04:29:02.242Z,104.00
2018-08-28T04:30:02.208Z,120.00
2018-08-28T04:31:02.285Z,136.00
2018-08-28T04:32:02.174Z,148.00
2018-08-28T04:33:02.100Z,168.00
2018-08-28T04:34:02.039Z,184.00
2018-08-28T04:35:01.999Z,208.00
2018-08-28T04:36:01.968Z,232.00
2018-08-28T04:37:01.925Z,256.00
2018-08-28T04:38:01.904Z,280.00
2018-08-28T04:39:01.837Z,312.00
2018-08-28T04:40:01.805Z,340.00
2018-08-28T04:41:01.772Z,372.00
2018-08-28T04:42:01.744Z,404.00
2018-08-28T04:43:01.707Z,440.00
2018-08-28T04:44:01.637Z,480.00
2018-08-28T04:45:01.599Z,520.00
2018-08-28T04:46:01.560Z,560.00
2018-08-28T04:47:01.518Z,608.00
2018-08-28T04:48:01.514Z,656.00
2018-08-28T04:49:01.651Z,704.00
2018-08-28T04:50:01.407Z,756.00
2018-08-28T04:51:01.364Z,812.00
2018-08-28T04:52:01.317Z,860.00
2018-08-28T04:53:01.309Z,920.00
2018-08-28T04:54:01.255Z,976.00
2018-08-28T04:55:01.336Z,1040.00
2018-08-28T04:56:01.158Z,1108.00
2018-08-28T04:57:01.117Z,1176.00
2018-08-28T04:58:01.077Z,1244.00
2018-08-28T04:59:01.062Z,1316.00
2018-08-28T05:00:01.006Z,1384.00
2018-08-28T05:01:00.970Z,1452.00
2018-08-28T05:02:00.928Z,1524.00
2018-08-28T05:03:00.908Z,1596.00
2018-08-28T05:04:00.838Z,1676.00
2018-08-28T05:05:00.799Z,1760.00
2018-08-28T05:06:00.758Z,1844.00
2018-08-28T05:07:00.720Z,1928.00
2018-08-28T05:08:00.713Z,2012.00
2018-08-28T05:09:00.651Z,2104.00
2018-08-28T05:10:00.598Z,2188.00
2018-08-28T05:11:00.560Z,2276.00
2018-08-28T05:12:00.525Z,2364.00
2018-08-28T05:13:00.486Z,2452.00
2018-08-28T05:14:00.468Z,2540.00
2018-08-28T05:15:00.408Z,2636.00
2018-08-28T05:16:00.505Z,2740.00
2018-08-28T05:17:00.317Z,2840.00
2018-08-28T05:18:00.280Z,2940.00
2018-08-28T05:19:00.266Z,3040.00
2018-08-28T05:20:00.205Z,3140.00
2018-08-28T05:21:00.166Z,3252.00
2018-08-28T05:22:00.170Z,3364.00
2018-08-28T05:23:00.088Z,3480.00
2018-08-28T05:24:00.041Z,3592.00
2018-08-28T05:25:00.022Z,3696.00
2018-08-28T05:25:59.969Z,3796.00
2018-08-28T05:26:59.927Z,3904.00
2018-08-28T05:27:59.887Z,4024.00
2018-08-28T05:28:59.842Z,4188.00
2018-08-28T05:29:59.821Z,4400.00
2018-08-28T05:30:59.762Z,4588.00
2018-08-28T05:31:59.732Z,4796.00
2018-08-28T05:32:59.695Z,4972.00
2018-08-28T05:33:59.650Z,5112.00
2018-08-28T05:34:59.640Z,5272.00
2018-08-28T05:35:59.565Z,5708.00
2018-08-28T05:36:59.526Z,6148.00
2018-08-28T05:37:59.490Z,6456.00
2018-08-28T05:38:59.447Z,6772.00
2018-08-28T05:39:59.415Z,7004.00
2018-08-28T05:40:59.394Z,7168.00
2018-08-28T05:41:59.329Z,7360.00
2018-08-28T05:42:59.291Z,7616.00
2018-08-28T05:43:59.257Z,7808.00
2018-08-28T05:44:59.215Z,7980.00
2018-08-28T05:45:59.201Z,8196.00
2018-08-28T05:46:59.139Z,8440.00
2018-08-28T05:47:59.094Z,8600.00
2018-08-28T05:48:59.059Z,8704.00
2018-08-28T05:49:59.019Z,8856.00
2018-08-28T05:50:59.006Z,8964.00
2018-08-28T05:51:58.949Z,9052.00
2018-08-28T05:52:58.909Z,9248.00
2018-08-28T05:53:58.869Z,9436.00
2018-08-28T05:54:58.895Z,9624.00
2018-08-28T05:55:58.872Z,9792.00
2018-08-28T05:56:58.754Z,9932.00
2018-08-28T05:57:58.726Z,10076.00
2018-08-28T05:58:58.687Z,10148.00
2018-08-28T05:59:58.643Z,10284.00
2018-08-28T06:00:58.604Z,10380.00
2018-08-28T06:01:58.600Z,10476.00
2018-08-28T06:02:58.577Z,10676.00
2018-08-28T06:03:58.499Z,10828.00
2018-08-28T06:04:58.464Z,10984.00
2018-08-28T06:05:58.443Z,11068.00
2018-08-28T06:06:58.414Z,11156.00
2018-08-28T06:07:58.349Z,11260.00
2018-08-28T06:08:58.374Z,11464.00
2018-08-28T06:09:58.280Z,11592.00
2018-08-28T06:10:58.245Z,11748.00
2018-08-28T06:11:58.234Z,11904.00
2018-08-28T06:12:58.180Z,12048.00
2018-08-28T06:13:58.134Z,12216.00
2018-08-28T06:14:58.101Z,12360.00
2018-08-28T06:15:58.072Z,12436.00
2018-08-28T06:16:58.059Z,12600.00
2018-08-28T06:17:58.021Z,12756.00
2018-08-28T06:18:57.968Z,12988.00
2018-08-28T06:19:57.926Z,13484.00
2018-08-28T06:20:57.891Z,13916.00
2018-08-28T06:21:57.882Z,14240.00
2018-08-28T06:22:57.828Z,14396.00
2018-08-28T06:23:57.792Z,14724.00
2018-08-28T06:24:57.757Z,15168.00
2018-08-28T06:25:57.724Z,15200.00
2018-08-28T06:26:57.690Z,15136.00
2018-08-28T06:27:57.666Z,15104.00
2018-08-28T06:28:57.613Z,15168.00
2018-08-28T06:29:57.591Z,15200.00
2018-08-28T06:30:57.553Z,15264.00
2018-08-28T06:31:57.513Z,15424.00
2018-08-28T06:32:57.503Z,15520.00
2018-08-28T06:33:57.476Z,15744.00
2018-08-28T06:34:57.410Z,15936.00
2018-08-28T06:35:57.382Z,16096.00
2018-08-28T06:36:57.346Z,16128.00
2018-08-28T06:37:57.317Z,16032.00
2018-08-28T06:38:57.301Z,15968.00
2018-08-28T06:39:57.236Z,16224.00
2018-08-28T06:40:57.203Z,16512.00
2018-08-28T06:41:57.173Z,16992.00
2018-08-28T06:42:57.142Z,17344.00
2018-08-28T06:43:57.145Z,17504.00
2018-08-28T06:44:57.079Z,17696.00
2018-08-28T06:45:57.039Z,17696.00
2018-08-28T06:47:07.206Z,18080.00
2018-08-28T06:47:56.976Z,18368.00
2018-08-28T06:48:56.961Z,18624.00
2018-08-28T06:49:56.900Z,18688.00
2018-08-28T06:50:56.868Z,18848.00
2018-08-28T06:51:56.833Z,18880.00
2018-08-28T06:52:56.802Z,18912.00
2018-08-28T06:53:56.801Z,18976.00
2018-08-28T06:54:56.740Z,19072.00
2018-08-28T06:55:56.710Z,19232.00
2018-08-28T06:56:56.705Z,19328.00
2018-08-28T06:57:56.634Z,19520.00
2018-08-28T06:58:56.604Z,19680.00
2018-08-28T06:59:56.598Z,19904.00
2018-08-28T07:00:56.546Z,20192.00
2018-08-28T07:01:56.503Z,20416.00
2018-08-28T07:03:05.736Z,20576.00
2018-08-28T07:03:56.465Z,20768.00
2018-08-28T07:04:56.445Z,20736.00
2018-08-28T07:05:56.433Z,20800.00
2018-08-28T07:06:56.348Z,20800.00
2018-08-28T07:07:56.335Z,21024.00
2018-08-28T07:08:56.272Z,21312.00
2018-08-28T07:09:56.242Z,21248.00
2018-08-28T07:10:56.231Z,21376.00
2018-08-28T07:11:56.183Z,21536.00
2018-08-28T07:12:56.150Z,21856.00
2018-08-28T07:13:56.109Z,22048.00
2018-08-28T07:14:56.078Z,22112.00
2018-08-28T07:15:56.084Z,22272.00
2018-08-28T07:16:56.022Z,22240.00
2018-08-28T07:17:55.988Z,22240.00
2018-08-28T07:18:55.958Z,22336.00
2018-08-28T07:19:55.929Z,22368.00
2018-08-28T07:20:55.904Z,22624.00
2018-08-28T07:21:55.849Z,22624.00
2018-08-28T07:22:55.852Z,22784.00
2018-08-28T07:23:55.794Z,22976.00
2018-08-28T07:24:55.756Z,23136.00
2018-08-28T07:25:55.773Z,23200.00
2018-08-28T07:26:55.703Z,23168.00
2018-08-28T07:27:55.663Z,23296.00
2018-08-28T07:28:55.630Z,23552.00
2018-08-28T07:29:55.605Z,23744.00
2018-08-28T07:30:55.573Z,23648.00
2018-08-28T07:31:55.632Z,23232.00
2018-08-28T07:32:55.498Z,23104.00
2018-08-28T07:33:55.468Z,24192.00
2018-08-28T07:34:55.439Z,24800.00
2018-08-28T07:35:55.410Z,24736.00
2018-08-28T07:36:55.400Z,24864.00
2018-08-28T07:37:55.347Z,24608.00
2018-08-28T07:38:55.317Z,24928.00
2018-08-28T07:39:55.275Z,24960.00
2018-08-28T07:40:55.247Z,24992.00
2018-08-28T07:41:55.236Z,24672.00
2018-08-28T07:42:55.210Z,23840.00
2018-08-28T07:43:55.157Z,24608.00
2018-08-28T07:44:55.130Z,25376.00
2018-08-28T07:45:55.092Z,24704.00
2018-08-28T07:46:55.057Z,25664.00
2018-08-28T07:47:55.056Z,25760.00
2018-08-28T07:48:55.002Z,25728.00
2018-08-28T07:49:54.970Z,25952.00
2018-08-28T07:50:54.941Z,25984.00
2018-08-28T07:51:54.906Z,25824.00
2018-08-28T07:52:54.895Z,26240.00
2018-08-28T07:53:54.904Z,25792.00
2018-08-28T07:54:54.807Z,26016.00
2018-08-28T07:56:05.804Z,26080.00
2018-08-28T07:56:54.751Z,26144.00
2018-08-28T07:57:54.734Z,26656.00
2018-08-28T07:58:54.678Z,26816.00
2018-08-28T07:59:54.657Z,26816.00
2018-08-28T08:00:54.625Z,26688.00
2018-08-28T08:01:54.587Z,26912.00
2018-08-28T08:02:54.583Z,27008.00
2018-08-28T08:03:54.520Z,26752.00
2018-08-28T08:04:54.494Z,27360.00
2018-08-28T08:05:54.466Z,27488.00
2018-08-28T08:06:54.440Z,27424.00
2018-08-28T08:07:54.407Z,27840.00
2018-08-28T08:08:54.400Z,28032.00
2018-08-28T08:09:54.335Z,28032.00
2018-08-28T08:10:54.305Z,27968.00
2018-08-28T08:11:54.271Z,27616.00
2018-08-28T08:12:54.243Z,27808.00
2018-08-28T08:13:54.241Z,28192.00
2018-08-28T08:14:54.202Z,28032.00
2018-08-28T08:16:02.419Z,28320.00
2018-08-28T08:16:54.127Z,27808.00
2018-08-28T08:17:54.096Z,27488.00
2018-08-28T08:18:54.092Z,28416.00
2018-08-28T08:19:54.025Z,28864.00
2018-08-28T08:20:53.994Z,29504.00
2018-08-28T08:21:53.963Z,30016.00
2018-08-28T08:22:53.941Z,29632.00
2018-08-28T08:23:53.931Z,23328.00
2018-08-28T08:24:53.875Z,29952.00
2018-08-28T08:25:53.848Z,29920.00
2018-08-28T08:26:53.818Z,29792.00
2018-08-28T08:27:53.831Z,30048.00
2018-08-28T08:28:53.771Z,30048.00
2018-08-28T08:29:53.721Z,29696.00
2018-08-28T08:30:53.694Z,29632.00
2018-08-28T08:31:53.654Z,22560.00
2018-08-28T08:32:53.624Z,27360.00
2018-08-28T08:33:53.615Z,27424.00
2018-08-28T08:35:02.893Z,28928.00
2018-08-28T08:35:53.541Z,29408.00
2018-08-28T08:36:53.508Z,30016.00
2018-08-28T08:37:53.470Z,30240.00
2018-08-28T08:38:53.468Z,31776.00
2018-08-28T08:39:53.412Z,19616.00
2018-08-28T08:40:53.383Z,18464.00
2018-08-28T08:41:53.437Z,31232.00
2018-08-28T08:42:53.326Z,25184.00
2018-08-28T08:43:53.285Z,18496.00
2018-08-28T08:44:53.281Z,29248.00
2018-08-28T08:45:53.230Z,17476.00
2018-08-28T08:46:53.206Z,15936.00
2018-08-28T08:47:53.166Z,17444.00
2018-08-28T08:48:53.140Z,31968.00
2018-08-28T08:49:53.124Z,22400.00
2018-08-28T08:50:53.073Z,34240.00
2018-08-28T08:51:53.048Z,35840.00
2018-08-28T08:52:53.005Z,36800.00
2018-08-28T08:54:03.437Z,36896.00
2018-08-28T08:54:53.024Z,29824.00
2018-08-28T08:55:52.914Z,36320.00
2018-08-28T08:56:52.882Z,35264.00
2018-08-28T08:57:52.859Z,21152.00
2018-08-28T08:58:52.834Z,22240.00
2018-08-28T08:59:52.817Z,18880.00
2018-08-28T09:00:52.760Z,25280.00
2018-08-28T09:01:52.731Z,36576.00
2018-08-28T09:02:52.708Z,34304.00
2018-08-28T09:03:52.683Z,19072.00
2018-08-28T09:04:52.642Z,18624.00
2018-08-28T09:05:52.682Z,22528.00
2018-08-28T09:06:52.579Z,19968.00
2018-08-28T09:07:52.544Z,30656.00
2018-08-28T09:08:52.514Z,33984.00
2018-08-28T09:09:52.482Z,36192.00
2018-08-28T09:10:52.472Z,37184.00
2018-08-28T09:11:52.428Z,34336.00
2018-08-28T09:12:52.397Z,35296.00
2018-08-28T09:13:52.357Z,34144.00
2018-08-28T09:14:52.326Z,19232.00
2018-08-28T09:15:52.330Z,17412.00
2018-08-28T09:16:52.273Z,17072.00
2018-08-28T09:17:52.249Z,25280.00
2018-08-28T09:18:52.208Z,26880.00
2018-08-28T09:19:52.170Z,32448.00
2018-08-28T09:20:52.137Z,31072.00
2018-08-28T09:21:52.130Z,18016.00
2018-08-28T09:22:52.100Z,16640.00
2018-08-28T09:23:52.053Z,16264.00
2018-08-28T09:24:52.021Z,16568.00
2018-08-28T09:25:51.991Z,16492.00
2018-08-28T09:26:51.986Z,16056.00
2018-08-28T09:27:51.960Z,15872.00
2018-08-28T09:28:51.889Z,15996.00
2018-08-28T09:29:51.864Z,16596.00
2018-08-28T09:30:51.832Z,33696.00
2018-08-28T09:31:51.811Z,34816.00
2018-08-28T09:32:51.760Z,35264.00
2018-08-28T09:33:51.730Z,36032.00
2018-08-28T09:34:51.699Z,36896.00
2018-08-28T09:35:51.668Z,37312.00
2018-08-28T09:36:51.662Z,36288.00
2018-08-28T09:37:51.608Z,35904.00
2018-08-28T09:38:51.620Z,34176.00
2018-08-28T09:39:51.537Z,33504.00
2018-08-28T09:40:51.510Z,34144.00
2018-08-28T09:41:51.498Z,34880.00
2018-08-28T09:42:51.445Z,35040.00
2018-08-28T09:43:51.486Z,34912.00
2018-08-28T09:44:51.400Z,35648.00
2018-08-28T09:45:51.352Z,36672.00
2018-08-28T09:46:51.338Z,36992.00
2018-08-28T09:47:51.323Z,36448.00
2018-08-28T09:48:51.267Z,36960.00
2018-08-28T09:49:51.300Z,22048.00
2018-08-28T09:50:51.259Z,20352.00
2018-08-28T09:51:51.197Z,21248.00
2018-08-28T09:52:51.136Z,30464.00
2018-08-28T09:53:51.109Z,37344.00
2018-08-28T09:54:51.083Z,39136.00
2018-08-28T09:55:51.052Z,36352.00
2018-08-28T09:56:51.024Z,35168.00
2018-08-28T09:57:51.014Z,40512.00
2018-08-28T09:58:50.961Z,37760.00
2018-08-28T09:59:50.927Z,21152.00
2018-08-28T10:00:50.895Z,18560.00
2018-08-28T10:01:50.876Z,26144.00
2018-08-28T10:02:50.870Z,38880.00
2018-08-28T10:03:50.806Z,40576.00
2018-08-28T10:04:50.892Z,41632.00
2018-08-28T10:05:50.748Z,35712.00
2018-08-28T10:06:50.723Z,41728.00
2018-08-28T10:07:50.753Z,41248.00
2018-08-28T10:08:50.666Z,41568.00
2018-08-28T10:09:50.637Z,22688.00
2018-08-28T10:10:50.665Z,24448.00
2018-08-28T10:11:50.566Z,32928.00
2018-08-28T10:12:58.096Z,23584.00
2018-08-28T10:13:50.523Z,31328.00
2018-08-28T10:14:50.487Z,42848.00
2018-08-28T10:15:50.448Z,27584.00
2018-08-28T10:16:50.421Z,27744.00
2018-08-28T10:17:50.398Z,40064.00
2018-08-28T10:18:50.388Z,40704.00
2018-08-28T10:19:50.337Z,39712.00
2018-08-28T10:20:50.311Z,40896.00
2018-08-28T10:21:50.274Z,41440.00
2018-08-28T10:22:50.259Z,42176.00
2018-08-28T10:23:50.239Z,41248.00
2018-08-28T10:24:50.187Z,40192.00
2018-08-28T10:25:50.168Z,37536.00
2018-08-28T10:26:50.139Z,26240.00
2018-08-28T10:27:50.109Z,20160.00
2018-08-28T10:28:50.103Z,20096.00
2018-08-28T10:29:50.084Z,20544.00
2018-08-28T10:30:50.022Z,20160.00
2018-08-28T10:31:49.992Z,19968.00
2018-08-28T10:32:49.976Z,20992.00
2018-08-28T10:33:49.952Z,21984.00
2018-08-28T10:34:49.900Z,22368.00
2018-08-28T10:35:49.870Z,22496.00
2018-08-28T10:36:49.839Z,25600.00
2018-08-28T10:37:49.816Z,48672.00
2018-08-28T10:38:49.808Z,49056.00
2018-08-28T10:39:49.756Z,46848.00
2018-08-28T10:40:49.721Z,45824.00
2018-08-28T10:41:49.695Z,44512.00
2018-08-28T10:42:49.662Z,43680.00
2018-08-28T10:43:49.660Z,42336.00
2018-08-28T10:44:49.602Z,42080.00
2018-08-28T10:45:49.569Z,42752.00
2018-08-28T10:46:49.710Z,44384.00
2018-08-28T10:47:49.515Z,45504.00
2018-08-28T10:48:49.486Z,46784.00
2018-08-28T10:49:49.470Z,47264.00
2018-08-28T10:50:49.420Z,44960.00
2018-08-28T10:51:49.393Z,45728.00
2018-08-28T10:53:00.607Z,45344.00
2018-08-28T10:53:49.339Z,45664.00
2018-08-28T10:54:49.336Z,40864.00
2018-08-28T10:55:49.280Z,23680.00
2018-08-28T10:56:49.251Z,21952.00
2018-08-28T10:57:49.221Z,21632.00
2018-08-28T10:58:49.224Z,21600.00
2018-08-28T10:59:49.196Z,28224.00
2018-08-28T11:00:49.143Z,20896.00
2018-08-28T11:01:49.109Z,19776.00
2018-08-28T11:02:49.080Z,21216.00
2018-08-28T11:03:49.062Z,22336.00
2018-08-28T11:04:49.050Z,23680.00
2018-08-28T11:05:49.000Z,26336.00
2018-08-28T11:06:48.972Z,28480.00
2018-08-28T11:07:48.934Z,24416.00
2018-08-28T11:08:48.934Z,41184.00
2018-08-28T11:09:48.898Z,25632.00
2018-08-28T11:10:48.848Z,29472.00
2018-08-28T11:11:48.831Z,48576.00
2018-08-28T11:12:48.790Z,25472.00
2018-08-28T11:13:48.763Z,33568.00
2018-08-28T11:14:48.753Z,22656.00
2018-08-28T11:15:48.693Z,21728.00
2018-08-28T11:16:48.670Z,22176.00
2018-08-28T11:17:48.638Z,21088.00
2018-08-28T11:18:48.614Z,20448.00
2018-08-28T11:19:48.595Z,20032.00
2018-08-28T11:20:48.544Z,19136.00
2018-08-28T11:21:48.509Z,18528.00
2018-08-28T11:22:48.530Z,18016.00
2018-08-28T11:23:48.455Z,17632.00
2018-08-28T11:24:48.443Z,17600.00
2018-08-28T11:25:48.393Z,18048.00
2018-08-28T11:26:48.370Z,18912.00
2018-08-28T11:27:48.320Z,20192.00
2018-08-28T11:28:48.292Z,26656.00
2018-08-28T11:29:48.282Z,24384.00
2018-08-28T11:30:48.227Z,28864.00
2018-08-28T11:31:48.203Z,36576.00
2018-08-28T11:32:48.171Z,51584.00
2018-08-28T11:33:48.133Z,50656.00
2018-08-28T11:34:48.131Z,49856.00
2018-08-28T11:35:48.095Z,36320.00
2018-08-28T11:36:48.045Z,31680.00
2018-08-28T11:37:48.015Z,30400.00
2018-08-28T11:38:47.982Z,33504.00
2018-08-28T11:39:47.944Z,39552.00
2018-08-28T11:40:47.933Z,28288.00
2018-08-28T11:41:47.883Z,21056.00
2018-08-28T11:42:47.851Z,19072.00
2018-08-28T11:43:47.829Z,16496.00
2018-08-28T11:44:47.797Z,15628.00
2018-08-28T11:45:47.784Z,14960.00
2018-08-28T11:46:47.737Z,14800.00
2018-08-28T11:47:47.695Z,14596.00
2018-08-28T11:48:47.668Z,16560.00
2018-08-28T11:49:47.638Z,22208.00
2018-08-28T11:50:47.629Z,48640.00
2018-08-28T11:51:47.570Z,26944.00
2018-08-28T11:52:47.552Z,42816.00
2018-08-28T11:53:47.505Z,27328.00
2018-08-28T11:54:47.470Z,24576.00
2018-08-28T11:55:47.448Z,22912.00
2018-08-28T11:56:47.437Z,33152.00
2018-08-28T11:57:47.382Z,23808.00
2018-08-28T11:58:47.353Z,21600.00
2018-08-28T11:59:47.313Z,18688.00
2018-08-28T12:00:47.282Z,18816.00
2018-08-28T12:01:47.273Z,20160.00
2018-08-28T12:02:47.217Z,21184.00
2018-08-28T12:03:47.192Z,21664.00
2018-08-28T12:04:47.172Z,20960.00
2018-08-28T12:05:47.119Z,21088.00
2018-08-28T12:06:47.171Z,24768.00
2018-08-28T12:07:47.072Z,29568.00
2018-08-28T12:08:47.031Z,20704.00
2018-08-28T12:09:47.003Z,21888.00
2018-08-28T12:10:46.967Z,22208.00
2018-08-28T12:11:46.955Z,23424.00
2018-08-28T12:12:46.897Z,25088.00
2018-08-28T12:13:46.866Z,24416.00
2018-08-28T12:14:46.834Z,24352.00
2018-08-28T12:15:46.809Z,25472.00
2018-08-28T12:16:46.776Z,46368.00
2018-08-28T12:17:46.765Z,38720.00